Terminal Aerodrome Forecast
Issued by NWS

Home | Current Version | Previous Version | Graphics & Text | Print | Product List | Glossary On
Versions: 1 2 3 4 5 6 7 8 9 10 11 12 13 14 15 16 17 18 19
482
FTUS43 KLOT 222325
TAFDPA
TAF
KDPA 222325Z 2300/2324 16004KT P6SM FEW250
     FM230900 VRB03KT 6SM HZ SKC
      TEMPO 2309/2311 5SM HZ
     FM231400 20005KT P6SM FEW045
     FM232000 15005KT P6SM FEW050 SCT250=

USA.gov is the U.S. government's official web portal to all federal, state and local government web resources and services.